Time;durP1;ratioP1;P1;durP2;ratioP2;P2;SDS_P1;SDS_P2;PMS_P1;PMS_P2;Temp;Humidity;BMP_temperature;BMP_pressure;BME280_temperature;BME280_humidity;BME280_pressure;Samples;Min_cycle;Max_cycle;Signal;HPM_P1;HPM_P2
2023/07/06 00:01:05;;;;;;;9.95;4.75;;;12.90;99.90;;;;;;5035369;28;20050;-67
2023/07/06 00:03:33;;;;;;;9.52;4.82;;;12.90;99.90;;;;;;5035260;28;20045;-69
2023/07/06 00:06:00;;;;;;;7.82;4.38;;;12.90;99.90;;;;;;5035352;28;20085;-68
2023/07/06 00:08:29;;;;;;;10.98;4.47;;;12.90;99.90;;;;;;5034831;28;20064;-69
2023/07/06 00:10:54;;;;;;;11.20;4.40;;;12.90;99.90;;;;;;5035232;28;20056;-69
2023/07/06 00:13:20;;;;;;;9.07;4.43;;;12.90;99.90;;;;;;5017124;28;20053;-69
2023/07/06 00:15:48;;;;;;;7.38;4.38;;;12.90;99.90;;;;;;5035189;28;20037;-68
2023/07/06 00:18:15;;;;;;;9.38;4.80;;;12.80;99.90;;;;;;5034714;28;20060;-69
2023/07/06 00:20:41;;;;;;;6.25;4.00;;;12.80;99.90;;;;;;5035063;28;20132;-69
2023/07/06 00:23:09;;;;;;;9.82;4.75;;;12.80;99.90;;;;;;5035105;28;20053;-70
2023/07/06 00:25:36;;;;;;;10.20;5.03;;;12.80;99.90;;;;;;5033619;28;20053;-68
2023/07/06 00:28:03;;;;;;;10.15;4.90;;;12.70;99.90;;;;;;5033915;28;20049;-69
2023/07/06 00:31:21;;;;;;;11.93;4.95;;;12.70;99.90;;;;;;5033516;28;20418;-69
2023/07/06 00:33:17;;;;;;;11.32;4.95;;;12.70;99.90;;;;;;5029989;28;20411;-68
2023/07/06 00:35:44;;;;;;;8.60;5.63;;;12.70;99.90;;;;;;5034703;28;20067;-67
2023/07/06 00:38:15;;;;;;;10.82;5.15;;;12.70;99.90;;;;;;5049570;28;20045;-67
2023/07/06 00:40:49;;;;;;;9.48;5.20;;;12.60;99.90;;;;;;5034507;28;20052;-68
2023/07/06 00:43:20;;;;;;;7.97;5.10;;;12.60;99.90;;;;;;5034263;28;20045;-68
2023/07/06 00:45:48;;;;;;;7.97;5.00;;;12.60;99.90;;;;;;5034645;28;20043;-67
2023/07/06 00:48:37;;;;;;;10.25;4.63;;;12.60;99.90;;;;;;5049531;28;20053;-72
2023/07/06 00:51:08;;;;;;;9.65;4.85;;;12.60;99.90;;;;;;5034473;28;20049;-67
2023/07/06 00:53:41;;;;;;;8.95;4.70;;;12.60;99.90;;;;;;5033871;28;20539;-68
2023/07/06 00:56:11;;;;;;;11.13;5.22;;;12.50;99.90;;;;;;5033993;28;20061;-67
2023/07/06 00:58:43;;;;;;;13.35;5.60;;;12.50;99.90;;;;;;5033866;28;20049;-67
2023/07/06 01:01:11;;;;;;;8.07;5.13;;;12.50;99.90;;;;;;5034306;28;20426;-67
2023/07/06 01:03:48;;;;;;;8.57;5.57;;;12.50;99.90;;;;;;5032641;28;20049;-68
2023/07/06 01:06:24;;;;;;;8.40;5.15;;;12.50;99.90;;;;;;5034254;28;20046;-69
2023/07/06 01:08:52;;;;;;;9.68;5.47;;;12.50;99.90;;;;;;5033251;28;20042;-67
2023/07/06 01:11:19;;;;;;;8.25;5.90;;;12.40;99.90;;;;;;5033748;28;20080;-72
2023/07/06 01:13:52;;;;;;;7.75;5.55;;;12.40;99.90;;;;;;5034028;28;20041;-67
2023/07/06 01:16:56;;;;;;;9.60;5.97;;;12.40;99.90;;;;;;5033627;28;20045;-72
2023/07/06 01:20:04;;;;;;;8.65;5.70;;;12.40;99.90;;;;;;5033901;28;20352;-69
2023/07/06 01:22:35;;;;;;;11.30;5.75;;;12.40;99.90;;;;;;5032310;28;20053;-68
2023/07/06 01:25:19;;;;;;;11.48;6.32;;;12.40;99.90;;;;;;5032691;28;20045;-68
2023/07/06 01:28:05;;;;;;;11.10;6.78;;;12.40;99.90;;;;;;5034059;28;20049;-67
2023/07/06 01:30:56;;;;;;;10.82;6.50;;;12.40;99.90;;;;;;5002352;28;20060;-68
2023/07/06 01:33:32;;;;;;;9.52;6.40;;;12.40;99.90;;;;;;5032355;28;20056;-68
2023/07/06 01:36:28;;;;;;;12.55;6.75;;;12.40;99.90;;;;;;5033620;28;20041;-68
2023/07/06 01:39:14;;;;;;;10.25;6.05;;;12.30;99.90;;;;;;5033667;28;20060;-68
2023/07/06 01:41:40;;;;;;;7.63;6.45;;;12.30;99.90;;;;;;5033204;28;20045;-68
2023/07/06 01:44:09;;;;;;;14.23;6.60;;;12.30;99.90;;;;;;5033704;28;20050;-68
2023/07/06 01:46:34;;;;;;;10.75;6.75;;;12.30;99.90;;;;;;5033103;28;20131;-68
2023/07/06 01:49:00;;;;;;;12.57;7.25;;;12.30;99.90;;;;;;5033474;28;20081;-68
2023/07/06 01:51:51;;;;;;;11.45;7.30;;;12.30;99.90;;;;;;5032703;28;20067;-68
2023/07/06 01:54:21;;;;;;;12.10;7.10;;;12.30;99.90;;;;;;5033064;28;20426;-68
2023/07/06 01:56:53;;;;;;;14.45;7.75;;;12.30;99.90;;;;;;5033104;28;20158;-67
2023/07/06 01:59:24;;;;;;;10.52;6.93;;;12.30;99.90;;;;;;5048751;28;20375;-68
2023/07/06 02:01:59;;;;;;;13.07;7.15;;;12.30;99.90;;;;;;5047891;28;20119;-68
2023/07/06 02:04:30;;;;;;;11.00;7.32;;;12.40;99.90;;;;;;5032766;28;20124;-72
2023/07/06 02:07:00;;;;;;;9.02;6.80;;;12.40;99.90;;;;;;5032942;28;20107;-68
2023/07/06 02:09:26;;;;;;;11.88;7.55;;;12.40;99.90;;;;;;5032740;28;20055;-73
2023/07/06 02:11:52;;;;;;;14.27;7.28;;;12.40;99.90;;;;;;5031954;28;20111;-68
2023/07/06 02:14:19;;;;;;;10.10;7.60;;;12.40;99.90;;;;;;5032987;28;20045;-67
2023/07/06 02:16:45;;;;;;;13.85;7.57;;;12.50;99.90;;;;;;5031455;28;20041;-67
2023/07/06 02:19:11;;;;;;;13.52;7.10;;;12.50;99.90;;;;;;5031554;28;20045;-67
2023/07/06 02:21:38;;;;;;;10.85;6.95;;;12.50;99.90;;;;;;5031094;28;20045;-68
2023/07/06 02:24:07;;;;;;;15.13;7.43;;;12.40;99.90;;;;;;5032719;28;20132;-67
2023/07/06 02:26:32;;;;;;;11.88;7.85;;;12.50;99.90;;;;;;5032478;28;20041;-67
2023/07/06 02:28:58;;;;;;;9.77;7.38;;;12.50;99.90;;;;;;5031315;28;20483;-67
2023/07/06 02:31:24;;;;;;;14.23;7.65;;;12.50;99.90;;;;;;5032543;28;20131;-67
2023/07/06 02:33:49;;;;;;;9.65;7.43;;;12.50;99.90;;;;;;5032259;28;20191;-67
2023/07/06 02:36:16;;;;;;;12.05;7.35;;;12.50;99.90;;;;;;5031137;28;20045;-68
2023/07/06 02:38:42;;;;;;;11.50;7.60;;;12.60;99.90;;;;;;5030899;28;20049;-68
2023/07/06 02:41:08;;;;;;;10.77;7.10;;;12.60;99.90;;;;;;5032560;28;20068;-68
2023/07/06 02:43:34;;;;;;;10.60;7.38;;;12.60;99.90;;;;;;5031264;28;20053;-68
2023/07/06 02:46:04;;;;;;;12.30;7.00;;;12.60;99.90;;;;;;5032523;28;20052;-68
2023/07/06 02:48:29;;;;;;;13.02;7.43;;;12.60;99.90;;;;;;5031558;28;20445;-70
2023/07/06 02:50:55;;;;;;;12.20;7.30;;;12.60;99.90;;;;;;5032288;28;20045;-68
2023/07/06 02:53:21;;;;;;;12.70;8.25;;;12.70;99.90;;;;;;5032454;28;20081;-67
2023/07/06 02:55:48;;;;;;;13.18;7.20;;;12.70;99.90;;;;;;5031962;28;20057;-68
2023/07/06 02:58:14;;;;;;;11.75;7.55;;;12.70;99.90;;;;;;5032350;28;20228;-68
2023/07/06 03:00:40;;;;;;;13.15;7.65;;;12.70;99.90;;;;;;5030630;28;20041;-67
2023/07/06 03:03:08;;;;;;;10.95;7.15;;;12.70;99.90;;;;;;5030525;28;20103;-68
2023/07/06 03:05:37;;;;;;;12.70;7.20;;;12.70;99.90;;;;;;5030838;28;20038;-73
2023/07/06 03:08:05;;;;;;;10.98;7.63;;;12.70;99.90;;;;;;5032152;28;20049;-67
2023/07/06 03:10:32;;;;;;;16.23;7.88;;;12.80;99.90;;;;;;5032151;28;20045;-68
2023/07/06 03:12:59;;;;;;;13.52;7.50;;;12.70;99.90;;;;;;5031555;28;20072;-68
2023/07/06 03:15:25;;;;;;;11.77;8.40;;;12.70;99.90;;;;;;5030796;28;20042;-68
2023/07/06 03:17:51;;;;;;;12.15;7.95;;;12.70;99.90;;;;;;5030259;28;20091;-68
2023/07/06 03:20:19;;;;;;;13.00;7.53;;;12.70;99.90;;;;;;5031910;28;20518;-68
2023/07/06 03:22:48;;;;;;;15.50;8.00;;;12.70;99.90;;;;;;5031643;28;20045;-68
2023/07/06 03:25:19;;;;;;;15.30;8.82;;;12.70;99.90;;;;;;5031697;28;20045;-68
2023/07/06 03:27:48;;;;;;;10.05;7.85;;;12.60;99.90;;;;;;5047240;28;20048;-68
2023/07/06 03:30:18;;;;;;;12.82;8.40;;;12.60;99.90;;;;;;5031991;28;20549;-68
2023/07/06 03:32:43;;;;;;;12.20;7.93;;;12.50;99.90;;;;;;5031751;28;20037;-70
2023/07/06 03:35:11;;;;;;;13.65;8.30;;;12.50;99.90;;;;;;5032006;28;20048;-68
2023/07/06 03:37:38;;;;;;;14.05;7.88;;;12.50;99.90;;;;;;5032080;28;20041;-69
2023/07/06 03:40:10;;;;;;;11.35;7.53;;;12.50;99.90;;;;;;5031804;28;20067;-67
2023/07/06 03:42:41;;;;;;;11.18;8.07;;;12.50;99.90;;;;;;5032167;28;20395;-67
2023/07/06 03:45:08;;;;;;;12.95;7.93;;;12.50;99.90;;;;;;5032055;28;20085;-68
2023/07/06 03:47:35;;;;;;;10.85;8.05;;;12.50;99.90;;;;;;5030864;28;20071;-68
2023/07/06 03:50:01;;;;;;;12.13;7.22;;;12.50;99.90;;;;;;5031453;28;20045;-68
2023/07/06 03:52:28;;;;;;;11.10;8.00;;;12.50;99.90;;;;;;5031896;28;20049;-68
2023/07/06 03:54:54;;;;;;;10.85;8.02;;;12.50;99.90;;;;;;5031224;28;20093;-68
2023/07/06 03:57:20;;;;;;;11.90;7.40;;;12.50;99.90;;;;;;5031896;28;20064;-68
2023/07/06 03:59:46;;;;;;;11.77;7.78;;;12.60;99.90;;;;;;5031587;28;20047;-69
2023/07/06 04:02:12;;;;;;;12.88;7.57;;;12.60;99.90;;;;;;5031778;28;20132;-68
2023/07/06 04:04:41;;;;;;;9.68;7.03;;;12.60;99.90;;;;;;5014398;28;20056;-68
2023/07/06 04:07:07;;;;;;;10.40;7.05;;;12.70;99.90;;;;;;5031548;28;20057;-68
2023/07/06 04:09:35;;;;;;;15.05;7.05;;;12.70;99.90;;;;;;5030240;28;20491;-68
2023/07/06 04:12:01;;;;;;;10.73;7.40;;;12.80;99.90;;;;;;5013867;28;20049;-69
2023/07/06 04:14:27;;;;;;;12.13;6.78;;;12.80;99.90;;;;;;5032235;28;20107;-69
2023/07/06 04:16:56;;;;;;;12.20;6.68;;;12.90;99.90;;;;;;5035002;28;20053;-68
2023/07/06 04:19:25;;;;;;;12.05;6.38;;;12.90;99.90;;;;;;5034986;28;20510;-67
2023/07/06 04:21:52;;;;;;;12.40;7.05;;;13.00;99.90;;;;;;5033616;28;20120;-68
2023/07/06 04:24:18;;;;;;;11.27;6.85;;;13.00;99.90;;;;;;5033982;28;20049;-68
2023/07/06 04:26:47;;;;;;;14.15;6.15;;;13.10;99.90;;;;;;5035136;28;20056;-68
2023/07/06 04:29:13;;;;;;;13.55;7.10;;;13.00;99.90;;;;;;5050523;28;20056;-67
2023/07/06 04:31:41;;;;;;;11.80;7.13;;;13.10;99.90;;;;;;5035123;28;20041;-68
2023/07/06 04:34:07;;;;;;;11.32;6.78;;;13.10;99.90;;;;;;5034754;28;20041;-68
2023/07/06 04:36:33;;;;;;;17.13;6.47;;;13.10;99.90;;;;;;5034866;28;20048;-68
2023/07/06 04:38:59;;;;;;;10.02;6.53;;;13.20;99.90;;;;;;5033647;28;20056;-68
2023/07/06 04:41:28;;;;;;;14.50;6.90;;;13.20;99.90;;;;;;5035131;28;20088;-68
2023/07/06 04:43:55;;;;;;;12.38;5.65;;;13.20;99.90;;;;;;5034483;28;20136;-70
2023/07/06 04:46:21;;;;;;;10.77;6.07;;;13.30;99.90;;;;;;5034890;28;20049;-68
2023/07/06 04:48:47;;;;;;;12.10;7.03;;;13.30;99.90;;;;;;5034672;28;20478;-68
2023/07/06 04:51:13;;;;;;;10.15;6.32;;;13.30;99.90;;;;;;5033503;28;20124;-68
2023/07/06 04:53:40;;;;;;;10.55;6.43;;;13.40;99.90;;;;;;5034341;28;20475;-68
2023/07/06 04:56:06;;;;;;;14.10;7.05;;;13.40;99.90;;;;;;5016125;28;20128;-68
2023/07/06 04:58:32;;;;;;;14.65;6.97;;;13.50;99.90;;;;;;5017049;28;20103;-68
2023/07/06 05:01:04;;;;;;;10.80;6.38;;;13.60;99.90;;;;;;5034212;28;20047;-69
2023/07/06 05:03:30;;;;;;;13.27;6.82;;;13.60;99.90;;;;;;5034451;28;20046;-67
2023/07/06 05:06:01;;;;;;;10.15;6.53;;;13.70;99.90;;;;;;5033979;28;20048;-67
2023/07/06 05:08:27;;;;;;;19.38;6.80;;;14.10;99.90;;;;;;5034445;28;20085;-67
2023/07/06 05:10:53;;;;;;;12.35;5.95;;;15.00;99.90;;;;;;5033782;28;20084;-73
2023/07/06 05:13:21;;;;;;;10.10;5.80;;;15.90;99.90;;;;;;5034330;28;20487;-68
2023/07/06 05:15:48;;;;;;;10.15;5.75;;;16.70;99.90;;;;;;5032525;28;20056;-67
2023/07/06 05:18:15;;;;;;;16.35;6.30;;;17.40;99.90;;;;;;5033824;28;20095;-68
2023/07/06 05:20:40;;;;;;;8.40;4.78;;;18.00;99.90;;;;;;5034215;28;20075;-68
2023/07/06 05:23:08;;;;;;;11.05;5.20;;;18.60;99.90;;;;;;5033736;28;20042;-68
2023/07/06 05:25:36;;;;;;;8.10;4.97;;;19.20;99.90;;;;;;5033333;28;20491;-69
2023/07/06 05:28:02;;;;;;;10.60;5.55;;;19.50;99.90;;;;;;5033479;28;20053;-68
2023/07/06 05:30:28;;;;;;;11.88;5.68;;;19.90;99.90;;;;;;5034140;28;20041;-67
2023/07/06 05:32:54;;;;;;;10.18;5.32;;;20.20;99.90;;;;;;5032491;28;20055;-73
2023/07/06 05:35:22;;;;;;;13.88;5.20;;;20.50;99.90;;;;;;5033698;28;20479;-67
2023/07/06 05:37:48;;;;;;;8.65;5.00;;;20.80;99.90;;;;;;5033096;28;20419;-67
2023/07/06 05:40:14;;;;;;;10.70;5.32;;;21.10;99.90;;;;;;5033290;28;20123;-68
2023/07/06 05:42:40;;;;;;;11.45;5.38;;;21.20;99.90;;;;;;5033760;28;20476;-67
2023/07/06 05:45:08;;;;;;;10.40;5.30;;;21.30;99.90;;;;;;5033240;28;20048;-68
2023/07/06 05:47:34;;;;;;;11.63;5.13;;;21.50;99.90;;;;;;5033577;28;20123;-67
2023/07/06 05:50:00;;;;;;;14.05;5.35;;;21.70;99.90;;;;;;5032056;28;20050;-68
2023/07/06 05:52:27;;;;;;;14.23;5.35;;;21.80;99.90;;;;;;5032481;28;20091;-68
2023/07/06 05:54:53;;;;;;;9.57;4.95;;;22.10;99.90;;;;;;5015558;28;20053;-68
2023/07/06 05:57:19;;;;;;;12.15;6.00;;;22.20;99.90;;;;;;5032910;28;20083;-68
2023/07/06 05:59:46;;;;;;;12.18;5.85;;;22.30;99.90;;;;;;5033530;28;20050;-68
2023/07/06 06:02:16;;;;;;;12.40;5.50;;;22.50;99.90;;;;;;5033063;28;20083;-69
2023/07/06 06:04:42;;;;;;;9.35;5.20;;;22.70;99.90;;;;;;5033137;28;20486;-69
2023/07/06 06:07:09;;;;;;;11.50;5.50;;;22.90;99.90;;;;;;5032882;28;20426;-69
2023/07/06 06:09:35;;;;;;;11.88;5.40;;;23.10;99.90;;;;;;5032231;28;20046;-69
2023/07/06 06:12:01;;;;;;;10.15;5.20;;;23.40;99.90;;;;;;5032834;28;20041;-75
2023/07/06 06:14:27;;;;;;;12.00;5.45;;;23.80;99.90;;;;;;5031925;28;20041;-69
2023/07/06 06:16:53;;;;;;;9.52;5.07;;;23.70;99.90;;;;;;5032155;28;20064;-69
2023/07/06 06:19:20;;;;;;;11.85;5.65;;;23.90;99.90;;;;;;5015357;28;20041;-69
2023/07/06 06:21:46;;;;;;;12.38;5.20;;;24.20;99.90;;;;;;5031918;28;20047;-69
2023/07/06 06:24:11;;;;;;;10.43;5.40;;;24.40;99.90;;;;;;5032520;28;20195;-68
2023/07/06 06:26:41;;;;;;;10.60;5.35;;;24.70;99.90;;;;;;5032906;28;20045;-69
2023/07/06 06:29:09;;;;;;;13.85;5.72;;;24.80;99.90;;;;;;5032419;28;20057;-69
2023/07/06 06:31:36;;;;;;;9.98;5.18;;;25.00;99.90;;;;;;5032970;28;20079;-68
2023/07/06 06:34:03;;;;;;;10.80;5.45;;;25.20;99.90;;;;;;5032770;28;20096;-70
2023/07/06 06:36:28;;;;;;;12.18;4.97;;;25.20;99.20;;;;;;5030752;28;20045;-70
2023/07/06 06:38:54;;;;;;;11.20;5.30;;;25.40;99.50;;;;;;5032742;28;20045;-70
2023/07/06 06:41:21;;;;;;;12.77;5.35;;;25.50;99.90;;;;;;5031405;28;20045;-70
2023/07/06 06:43:48;;;;;;;12.57;5.38;;;25.70;99.90;;;;;;5032574;28;20045;-72
2023/07/06 06:46:14;;;;;;;13.95;5.53;;;26.00;99.90;;;;;;5031360;28;20103;-71
2023/07/06 06:48:40;;;;;;;9.55;4.82;;;26.50;99.90;;;;;;5032676;28;20144;-70
2023/07/06 06:51:09;;;;;;;11.45;4.90;;;26.70;99.70;;;;;;5031506;28;20112;-76
2023/07/06 06:53:39;;;;;;;11.45;4.95;;;27.10;99.50;;;;;;5032272;28;20132;-72
2023/07/06 06:56:09;;;;;;;9.38;4.88;;;27.30;98.40;;;;;;5032479;28;20108;-71
2023/07/06 06:58:37;;;;;;;7.75;4.65;;;27.60;98.20;;;;;;5031400;28;20121;-73
2023/07/06 07:01:05;;;;;;;13.80;5.45;;;27.80;98.00;;;;;;5032593;28;20131;-74
2023/07/06 07:03:32;;;;;;;9.05;4.88;;;28.00;97.70;;;;;;5031102;28;20049;-74
2023/07/06 07:05:59;;;;;;;11.40;4.85;;;28.10;95.90;;;;;;5032467;28;20045;-73
2023/07/06 07:08:25;;;;;;;11.45;4.72;;;28.40;97.50;;;;;;5032361;28;20052;-73
2023/07/06 07:10:57;;;;;;;11.90;4.90;;;28.30;96.20;;;;;;5032519;28;20050;-72
2023/07/06 07:13:25;;;;;;;10.85;5.15;;;28.30;96.00;;;;;;5031826;28;20044;-74
2023/07/06 07:15:52;;;;;;;13.00;4.90;;;28.50;96.70;;;;;;5031968;28;20529;-74
2023/07/06 07:18:20;;;;;;;9.27;4.50;;;28.60;96.30;;;;;;5032038;28;20049;-72
2023/07/06 07:20:49;;;;;;;10.40;3.85;;;29.00;96.20;;;;;;5015270;28;20442;-73
2023/07/06 07:23:15;;;;;;;8.55;3.90;;;29.10;95.40;;;;;;5030687;28;20132;-74
2023/07/06 07:25:41;;;;;;;13.20;4.45;;;29.30;95.50;;;;;;5031057;28;20124;-72
2023/07/06 07:28:07;;;;;;;11.52;4.10;;;29.60;95.20;;;;;;5032236;28;20041;-72
2023/07/06 07:30:34;;;;;;;11.50;4.25;;;29.60;94.80;;;;;;5031940;28;20053;-74
2023/07/06 07:33:00;;;;;;;8.25;3.65;;;29.70;94.80;;;;;;5032300;28;20056;-73
2023/07/06 07:35:26;;;;;;;12.57;4.35;;;29.80;94.20;;;;;;5031786;28;20037;-73
2023/07/06 07:37:52;;;;;;;10.63;4.30;;;29.80;93.80;;;;;;5032244;28;20132;-65
2023/07/06 07:40:19;;;;;;;8.95;3.50;;;30.00;93.50;;;;;;5029289;28;20180;-65
2023/07/06 07:42:46;;;;;;;9.57;3.53;;;30.00;93.70;;;;;;5030447;28;20095;-65
2023/07/06 07:45:13;;;;;;;9.18;3.13;;;30.00;93.00;;;;;;5030836;28;20049;-74
2023/07/06 07:47:39;;;;;;;9.45;3.35;;;29.90;92.40;;;;;;5032234;28;20076;-65
2023/07/06 07:50:06;;;;;;;8.43;2.97;;;30.10;92.40;;;;;;5035676;28;20054;-65
2023/07/06 07:52:34;;;;;;;9.68;2.70;;;29.90;91.20;;;;;;5034836;28;20046;-65
2023/07/06 07:55:00;;;;;;;9.20;3.13;;;30.00;90.60;;;;;;5017812;28;20068;-65
2023/07/06 07:57:30;;;;;;;6.70;2.65;;;29.90;91.20;;;;;;5035118;28;20049;-65
2023/07/06 07:59:56;;;;;;;9.45;3.20;;;29.90;91.00;;;;;;5035645;28;20408;-65
2023/07/06 08:02:22;;;;;;;7.25;2.90;;;29.80;91.30;;;;;;5035245;28;20051;-64
2023/07/06 08:04:48;;;;;;;7.82;2.72;;;30.00;90.60;;;;;;5035520;28;20128;-64
2023/07/06 08:07:14;;;;;;;8.75;2.85;;;30.30;91.10;;;;;;5017730;28;20059;-64
2023/07/06 08:09:41;;;;;;;7.80;3.10;;;30.50;90.30;;;;;;5033992;28;20065;-64
2023/07/06 08:12:07;;;;;;;7.85;2.55;;;30.30;90.20;;;;;;5033969;28;20265;-70
2023/07/06 08:14:38;;;;;;;7.07;2.20;;;30.10;90.70;;;;;;5050282;28;20088;-64
2023/07/06 08:17:05;;;;;;;7.78;2.13;;;30.10;90.00;;;;;;5035152;28;20099;-63
2023/07/06 08:19:36;;;;;;;6.22;1.95;;;30.30;88.80;;;;;;5033652;28;20400;-64
2023/07/06 08:22:03;;;;;;;6.68;2.30;;;30.40;89.00;;;;;;5035003;28;20041;-64
2023/07/06 08:24:29;;;;;;;5.38;1.85;;;30.00;88.50;;;;;;5033341;28;20402;-64
2023/07/06 08:26:55;;;;;;;5.70;2.17;;;29.40;87.00;;;;;;5035086;28;20041;-64
2023/07/06 08:29:22;;;;;;;7.07;2.17;;;29.10;89.60;;;;;;5034462;28;20046;-71
2023/07/06 08:31:49;;;;;;;5.18;1.70;;;29.20;88.60;;;;;;5034721;28;20463;-66
2023/07/06 08:34:16;;;;;;;4.75;1.90;;;29.30;86.40;;;;;;5050197;28;20049;-69
2023/07/06 08:36:43;;;;;;;3.33;1.92;;;28.90;86.90;;;;;;5034218;28;20108;-66
2023/07/06 08:39:09;;;;;;;7.25;2.00;;;28.20;87.50;;;;;;5034841;28;20046;-65
2023/07/06 08:41:39;;;;;;;6.78;2.20;;;28.00;89.00;;;;;;5049423;28;20491;-66
2023/07/06 08:44:09;;;;;;;6.80;2.10;;;28.30;89.20;;;;;;5033463;28;20049;-65
2023/07/06 08:46:38;;;;;;;7.05;2.38;;;28.30;88.10;;;;;;5032822;28;20053;-66
2023/07/06 08:49:20;;;;;;;7.10;1.90;;;27.70;88.30;;;;;;5033516;28;20049;-65
2023/07/06 08:51:48;;;;;;;4.70;1.90;;;27.40;88.20;;;;;;5034072;28;20171;-65
2023/07/06 08:54:21;;;;;;;6.75;2.10;;;27.00;89.40;;;;;;5034255;28;20059;-68
2023/07/06 08:56:48;;;;;;;;;;;26.70;89.80;;;;;;5034098;28;20505;-68
2023/07/06 08:59:41;;;;;;;6.95;2.00;;;26.40;90.40;;;;;;5032950;28;20372;-65
2023/07/06 09:02:17;;;;;;;6.85;2.20;;;26.10;90.30;;;;;;5033465;28;20199;-67
2023/07/06 09:04:43;;;;;;;9.45;2.17;;;25.80;90.30;;;;;;5033669;28;20701;-69
2023/07/06 09:07:13;;;;;;;6.38;2.22;;;25.40;90.90;;;;;;5033832;28;20462;-67
2023/07/06 09:09:47;;;;;;;59.53;5.70;;;25.40;91.40;;;;;;5033059;28;20502;-67
2023/07/06 09:12:28;;;;;;;5.65;1.73;;;25.20;91.20;;;;;;5033558;28;20394;-68
2023/07/06 09:14:56;;;;;;;7.10;2.25;;;25.00;91.00;;;;;;5033875;28;20045;-67
2023/07/06 09:17:21;;;;;;;5.22;2.15;;;24.90;91.10;;;;;;5033238;28;20071;-67
2023/07/06 09:19:48;;;;;;;5.03;1.70;;;24.90;91.10;;;;;;5031928;28;20132;-66
2023/07/06 09:22:17;;;;;;;26.98;2.95;;;24.90;91.30;;;;;;5033863;28;20516;-66
2023/07/06 09:24:46;;;;;;;6.13;1.90;;;24.90;91.60;;;;;;5033138;28;20046;-68
2023/07/06 09:27:23;;;;;;;4.97;1.85;;;25.20;91.60;;;;;;5033813;28;20134;-66
2023/07/06 09:30:03;;;;;;;5.28;2.05;;;25.80;91.20;;;;;;5033151;28;20102;-66
2023/07/06 09:32:32;;;;;;;5.47;2.00;;;25.80;90.60;;;;;;5033060;28;20629;-73
2023/07/06 09:35:20;;;;;;;6.38;2.08;;;25.90;91.50;;;;;;5033619;28;20068;-66
2023/07/06 09:37:51;;;;;;;8.88;2.15;;;26.20;91.20;;;;;;5033474;28;20088;-66
2023/07/06 09:40:17;;;;;;;6.20;2.00;;;26.10;90.90;;;;;;5033588;28;20052;-65
2023/07/06 09:42:44;;;;;;;16.52;2.05;;;25.90;91.00;;;;;;5033176;28;20045;-67
2023/07/06 09:45:23;;;;;;;7.55;2.03;;;25.90;91.40;;;;;;5033550;28;20045;-65
2023/07/06 09:47:57;;;;;;;5.43;1.90;;;25.80;90.50;;;;;;5033265;28;20128;-66
2023/07/06 09:50:46;;;;;;;6.32;2.15;;;26.20;90.90;;;;;;5033634;28;20045;-65
2023/07/06 09:53:23;;;;;;;3.03;1.60;;;26.90;88.60;;;;;;5033584;28;20052;-65
2023/07/06 09:55:49;;;;;;;4.28;1.70;;;27.40;87.40;;;;;;5032888;28;20065;-65
2023/07/06 09:58:26;;;;;;;4.13;1.73;;;27.50;87.60;;;;;;5033361;28;20052;-66
2023/07/06 10:01:16;;;;;;;8.05;2.10;;;27.20;88.40;;;;;;5031701;28;20041;-66
2023/07/06 10:03:53;;;;;;;7.43;2.25;;;27.00;88.70;;;;;;5001982;28;20092;-65
2023/07/06 10:06:50;;;;;;;4.28;1.85;;;26.70;90.00;;;;;;5033204;28;20037;-66
2023/07/06 10:09:23;;;;;;;7.25;1.95;;;26.30;90.20;;;;;;5033064;28;20559;-66
2023/07/06 10:11:55;;;;;;;3.88;1.92;;;25.90;90.10;;;;;;5031746;28;20050;-65
2023/07/06 10:14:41;;;;;;;3.90;1.60;;;25.60;90.00;;;;;;5033109;28;20060;-65
2023/07/06 10:17:25;;;;;;;5.68;1.73;;;25.30;89.00;;;;;;5033231;28;20053;-65
2023/07/06 10:20:17;;;;;;;5.20;1.90;;;25.20;90.00;;;;;;5033350;28;20049;-65
2023/07/06 10:23:04;;;;;;;5.53;2.00;;;25.10;90.00;;;;;;5019029;28;20406;-65
2023/07/06 10:26:07;;;;;;;3.65;1.77;;;24.90;90.10;;;;;;5031645;28;20403;-67
2023/07/06 10:28:43;;;;;;;5.53;2.20;;;24.70;90.50;;;;;;5032865;28;20045;-65
2023/07/06 10:31:16;;;;;;;3.80;1.92;;;24.60;90.50;;;;;;5032966;28;20080;-66
2023/07/06 10:33:59;;;;;;;5.53;2.10;;;24.50;90.30;;;;;;5032510;28;20103;-65
2023/07/06 10:36:32;;;;;;;6.43;1.90;;;24.20;90.70;;;;;;5028854;28;20479;-66
2023/07/06 10:38:59;;;;;;;5.85;2.45;;;24.10;91.40;;;;;;5029127;28;20558;-75
2023/07/06 10:41:41;;;;;;;5.20;2.08;;;24.10;91.60;;;;;;5029711;28;20111;-66
2023/07/06 10:44:46;;;;;;;4.13;2.08;;;24.20;91.80;;;;;;5031236;28;20049;-66
2023/07/06 10:47:48;;;;;;;6.65;1.95;;;24.50;91.10;;;;;;5029168;28;20041;-69
2023/07/06 10:50:19;;;;;;;6.97;2.30;;;24.90;91.80;;;;;;4998597;28;20057;-77
2023/07/06 10:53:03;;;;;;;5.28;2.03;;;25.00;91.20;;;;;;5030364;28;20049;-67
2023/07/06 10:55:39;;;;;;;4.90;1.80;;;25.20;90.60;;;;;;5031050;28;20064;-65
2023/07/06 10:58:25;;;;;;;3.40;1.70;;;25.30;90.90;;;;;;5032127;28;20147;-66
2023/07/06 11:00:52;;;;;;;6.93;2.10;;;25.20;90.40;;;;;;5031740;28;20519;-64
2023/07/06 11:03:23;;;;;;;5.10;1.83;;;25.20;90.70;;;;;;5030023;28;20445;-67
2023/07/06 11:05:54;;;;;;;5.53;2.15;;;25.30;90.20;;;;;;5031293;28;20045;-67
2023/07/06 11:09:04;;;;;;;5.68;1.70;;;25.30;90.10;;;;;;5030948;28;20049;-66
2023/07/06 11:11:34;;;;;;;3.45;1.63;;;25.30;89.00;;;;;;5032312;28;20053;-66
2023/07/06 11:14:20;;;;;;;3.85;1.70;;;25.20;88.60;;;;;;5030145;28;20107;-66
2023/07/06 11:17:10;;;;;;;5.90;1.80;;;25.30;89.90;;;;;;5030471;28;20045;-67
2023/07/06 11:20:08;;;;;;;4.65;1.80;;;25.50;89.20;;;;;;5018623;28;20058;-67
2023/07/06 11:22:36;;;;;;;3.78;1.90;;;25.60;88.50;;;;;;5031296;28;20083;-79
2023/07/06 11:25:03;;;;;;;5.38;1.95;;;25.60;89.50;;;;;;5035827;28;20377;-67
2023/07/06 11:27:44;;;;;;;4.22;1.75;;;25.50;89.70;;;;;;5036105;28;20128;-66
2023/07/06 11:30:18;;;;;;;3.67;1.65;;;25.60;89.10;;;;;;5034891;28;20052;-67
2023/07/06 11:32:54;;;;;;;5.70;1.77;;;25.30;87.30;;;;;;5035996;28;20183;-79
2023/07/06 11:35:35;;;;;;;3.15;1.80;;;25.00;88.40;;;;;;5036169;28;20042;-66
2023/07/06 11:38:24;;;;;;;4.60;1.90;;;24.80;88.90;;;;;;5035364;28;20041;-66
2023/07/06 11:41:10;;;;;;;4.72;2.00;;;24.40;90.70;;;;;;5035468;28;20130;-67
2023/07/06 11:44:03;;;;;;;6.95;2.35;;;24.10;91.40;;;;;;5036065;28;20049;-66
2023/07/06 11:46:47;;;;;;;5.60;2.13;;;24.00;92.20;;;;;;5036028;28;20060;-67
2023/07/06 11:49:31;;;;;;;4.45;2.00;;;24.00;92.00;;;;;;5036026;28;20065;-66
2023/07/06 11:51:58;;;;;;;;;;;24.00;91.80;;;;;;5035811;28;20046;-66
2023/07/06 11:57:44;;;;;;;4.97;2.10;;;23.90;92.30;;;;;;5023543;28;20050;-67
2023/07/06 12:02:57;;;;;;;5.53;2.22;;;23.80;92.30;;;;;;5035288;28;20041;-68
2023/07/06 12:05:40;;;;;;;6.32;2.00;;;23.80;92.70;;;;;;5035449;28;20050;-67
2023/07/06 12:08:38;;;;;;;5.50;1.98;;;23.80;91.90;;;;;;5034625;28;20501;-66
2023/07/06 12:11:15;;;;;;;4.72;2.08;;;23.70;92.60;;;;;;5034672;28;20144;-66
2023/07/06 12:13:48;;;;;;;7.10;2.10;;;24.00;92.00;;;;;;5035443;28;20099;-66
2023/07/06 12:16:18;;;;;;;6.97;1.95;;;24.10;92.00;;;;;;5035585;28;20054;-70
2023/07/06 12:18:45;;;;;;;6.22;2.15;;;24.30;92.10;;;;;;5034928;28;20588;-66
2023/07/06 12:21:32;;;;;;;5.38;2.10;;;24.40;91.90;;;;;;5034938;28;20054;-66
2023/07/06 12:24:06;;;;;;;4.18;1.92;;;24.40;91.50;;;;;;5034976;28;20053;-66
2023/07/06 12:26:34;;;;;;;6.03;2.20;;;24.40;91.60;;;;;;5035234;28;20443;-66
2023/07/06 12:29:04;;;;;;;4.40;1.92;;;24.40;91.70;;;;;;5050032;28;20107;-67
2023/07/06 12:31:31;;;;;;;5.47;2.10;;;24.40;91.90;;;;;;5033783;28;20120;-67
2023/07/06 12:33:58;;;;;;;4.32;1.80;;;24.30;91.90;;;;;;5034300;28;20394;-67
2023/07/06 12:36:29;;;;;;;4.60;2.13;;;24.20;92.20;;;;;;5034108;28;20124;-67
2023/07/06 12:38:56;;;;;;;5.25;2.30;;;24.20;92.30;;;;;;5034444;28;20080;-68
2023/07/06 12:41:22;;;;;;;5.93;2.17;;;24.10;91.80;;;;;;5034908;28;20115;-67
2023/07/06 12:43:53;;;;;;;5.68;1.90;;;24.00;91.80;;;;;;5034361;28;20065;-67
2023/07/06 12:46:21;;;;;;;6.43;1.88;;;24.00;92.20;;;;;;5032352;28;20061;-75
2023/07/06 12:48:51;;;;;;;6.70;2.25;;;24.20;92.10;;;;;;5033353;28;20049;-75
2023/07/06 12:51:23;;;;;;;5.75;1.92;;;24.40;92.10;;;;;;5033348;28;20072;-69
2023/07/06 12:53:50;;;;;;;4.78;2.10;;;24.50;92.20;;;;;;5033615;28;20463;-68
2023/07/06 12:56:22;;;;;;;6.05;1.88;;;24.50;92.00;;;;;;5032995;28;20049;-67
2023/07/06 12:59:01;;;;;;;5.90;2.20;;;24.50;91.60;;;;;;5033311;28;20499;-68
2023/07/06 13:01:30;;;;;;;3.65;2.13;;;24.50;92.00;;;;;;5033075;28;20044;-67
2023/07/06 13:04:08;;;;;;;3.03;1.70;;;24.50;91.90;;;;;;5032941;28;20095;-79
2023/07/06 13:06:46;;;;;;;5.22;1.80;;;24.60;92.20;;;;;;5033154;28;20107;-71
2023/07/06 13:09:22;;;;;;;4.80;1.70;;;24.60;92.10;;;;;;5032541;28;20085;-69